createdAt,value
2022-12-14T00:01:27.617Z,12.50
2022-12-14T00:03:55.579Z,16.20
2022-12-14T00:06:25.672Z,13.07
2022-12-14T00:08:54.242Z,13.75
2022-12-14T00:11:22.445Z,15.52
2022-12-14T00:13:54.238Z,15.50
2022-12-14T00:16:22.007Z,14.53
2022-12-14T00:18:55.116Z,14.43
2022-12-14T00:21:22.188Z,16.67
2022-12-14T00:23:50.480Z,14.77
2022-12-14T00:26:20.798Z,12.37
2022-12-14T00:28:49.153Z,12.52
2022-12-14T00:31:16.409Z,15.23
2022-12-14T00:33:44.115Z,15.68
2022-12-14T00:36:12.354Z,13.05
2022-12-14T00:38:40.010Z,14.38
2022-12-14T00:41:07.851Z,17.05
2022-12-14T00:43:34.916Z,12.60
2022-12-14T00:46:01.703Z,14.73
2022-12-14T00:48:29.318Z,13.00
2022-12-14T00:50:56.440Z,14.88
2022-12-14T00:53:24.147Z,11.48
2022-12-14T00:55:51.628Z,15.95
2022-12-14T00:58:21.296Z,14.15
2022-12-14T01:03:24.821Z,13.70
2022-12-14T01:05:51.692Z,13.70
2022-12-14T01:08:20.328Z,15.13
2022-12-14T01:10:47.191Z,13.55
2022-12-14T01:13:14.020Z,13.23
2022-12-14T01:15:40.697Z,14.90
2022-12-14T01:18:07.533Z,15.32
2022-12-14T01:20:34.170Z,20.92
2022-12-14T01:23:00.881Z,16.10
2022-12-14T01:25:27.617Z,16.60
2022-12-14T01:27:54.441Z,14.70
2022-12-14T01:30:21.194Z,11.85
2022-12-14T01:32:47.847Z,14.32
2022-12-14T01:35:14.559Z,12.95
2022-12-14T01:37:41.232Z,11.55
2022-12-14T01:40:08.877Z,13.68
2022-12-14T01:42:38.596Z,11.07
2022-12-14T01:45:06.498Z,12.27
2022-12-14T01:47:47.598Z,17.08
2022-12-14T01:50:42.989Z,15.40
2022-12-14T01:53:18.894Z,16.45
2022-12-14T01:55:51.970Z,14.02
2022-12-14T01:58:24.251Z,12.68
2022-12-14T02:00:55.787Z,15.50
2022-12-14T02:03:24.793Z,14.85
2022-12-14T02:06:00.998Z,14.10
2022-12-14T02:08:28.526Z,14.77
2022-12-14T02:10:56.607Z,13.50
2022-12-14T02:13:28.204Z,15.65
2022-12-14T02:15:55.346Z,11.65
2022-12-14T02:18:25.425Z,14.40
2022-12-14T02:21:17.699Z,15.57
2022-12-14T02:24:21.901Z,13.80
2022-12-14T02:27:03.486Z,9.68
2022-12-14T02:29:31.157Z,12.52
2022-12-14T02:32:27.781Z,12.02
2022-12-14T02:35:17.668Z,13.60
2022-12-14T02:38:04.384Z,9.90
2022-12-14T02:40:48.328Z,11.13
2022-12-14T02:43:33.482Z,13.02
2022-12-14T02:46:10.888Z,13.00
2022-12-14T02:48:46.121Z,12.85
2022-12-14T02:51:42.606Z,15.60
2022-12-14T02:54:20.213Z,11.60
2022-12-14T02:56:53.162Z,15.35
2022-12-14T02:59:21.307Z,12.77
2022-12-14T03:01:50.356Z,10.98
2022-12-14T03:04:18.779Z,13.10
2022-12-14T03:07:04.460Z,12.52
2022-12-14T03:09:32.648Z,11.90
2022-12-14T03:12:05.644Z,14.55
2022-12-14T03:14:37.270Z,14.77
2022-12-14T03:17:12.486Z,10.57
2022-12-14T03:19:49.078Z,10.73
2022-12-14T03:22:21.725Z,12.97
2022-12-14T03:24:55.681Z,13.10
2022-12-14T03:27:33.725Z,9.50
2022-12-14T03:30:08.509Z,9.77
2022-12-14T03:32:39.772Z,15.13
2022-12-14T03:35:28.414Z,15.18
2022-12-14T03:38:04.637Z,10.98
2022-12-14T03:40:37.575Z,13.87
2022-12-14T03:43:18.429Z,9.53
2022-12-14T03:46:02.906Z,13.50
2022-12-14T03:48:56.180Z,12.03
2022-12-14T03:51:47.379Z,11.37
2022-12-14T03:54:41.770Z,14.53
2022-12-14T03:57:27.761Z,17.80
2022-12-14T04:00:01.675Z,14.60
2022-12-14T04:02:44.578Z,15.83
2022-12-14T04:05:22.590Z,13.73
2022-12-14T04:08:16.968Z,16.47
2022-12-14T04:11:06.709Z,11.52
2022-12-14T04:13:59.841Z,14.35
2022-12-14T04:16:50.065Z,11.68
2022-12-14T04:19:23.629Z,12.75
2022-12-14T04:22:05.194Z,12.57
2022-12-14T04:25:06.316Z,10.70
2022-12-14T04:28:04.002Z,12.83
2022-12-14T04:30:34.886Z,12.25
2022-12-14T04:33:29.910Z,15.68
2022-12-14T04:36:01.580Z,12.43
2022-12-14T04:38:36.232Z,13.30
2022-12-14T04:41:09.026Z,12.30
2022-12-14T04:43:39.717Z,16.23
2022-12-14T04:46:10.721Z,12.05
2022-12-14T04:49:09.833Z,14.45
2022-12-14T04:51:46.064Z,16.65
2022-12-14T04:54:34.412Z,14.00
2022-12-14T04:57:04.937Z,12.63
2022-12-14T04:59:32.190Z,17.08
2022-12-14T05:02:19.862Z,13.82
2022-12-14T05:04:55.318Z,13.63
2022-12-14T05:07:48.967Z,14.98
2022-12-14T05:10:37.921Z,19.20
2022-12-14T05:13:26.598Z,15.43
2022-12-14T05:15:55.847Z,16.92
2022-12-14T05:18:23.114Z,13.90
2022-12-14T05:20:51.389Z,23.85
2022-12-14T05:23:18.324Z,15.13
2022-12-14T05:25:45.128Z,17.38
2022-12-14T05:28:15.903Z,13.45
2022-12-14T05:30:42.582Z,16.23
2022-12-14T05:33:20.031Z,17.33
2022-12-14T05:35:46.862Z,12.80
2022-12-14T05:38:13.532Z,17.25
2022-12-14T05:40:40.371Z,18.70
2022-12-14T05:43:07.959Z,16.50
2022-12-14T05:45:34.661Z,15.13
2022-12-14T05:48:01.384Z,17.88
2022-12-14T05:50:28.084Z,17.15
2022-12-14T05:52:55.818Z,15.43
2022-12-14T05:55:25.707Z,16.73
2022-12-14T05:57:52.317Z,16.08
2022-12-14T06:00:19.206Z,13.98
2022-12-14T06:02:45.954Z,18.73
2022-12-14T06:05:12.713Z,13.43
2022-12-14T06:07:39.718Z,15.80
2022-12-14T06:10:06.770Z,17.05
2022-12-14T06:12:33.354Z,16.15
2022-12-14T06:14:59.988Z,17.13
2022-12-14T06:17:26.606Z,17.20
2022-12-14T06:19:53.343Z,17.10
2022-12-14T06:22:21.286Z,16.77
2022-12-14T06:24:47.946Z,19.52
2022-12-14T06:27:14.780Z,18.27
2022-12-14T06:29:41.422Z,17.52
2022-12-14T06:32:08.096Z,18.98
2022-12-14T06:34:38.710Z,15.10
2022-12-14T06:37:07.370Z,16.80
2022-12-14T06:39:34.018Z,18.95
2022-12-14T06:42:00.747Z,19.77
2022-12-14T06:44:27.672Z,20.58
2022-12-14T06:46:54.402Z,19.17
2022-12-14T06:49:21.918Z,17.50
2022-12-14T06:51:48.965Z,17.88
2022-12-14T06:54:16.876Z,17.90
2022-12-14T06:56:45.725Z,17.98
2022-12-14T06:59:13.450Z,20.50
2022-12-14T07:01:41.000Z,19.55
2022-12-14T07:04:08.600Z,16.98
2022-12-14T07:06:38.459Z,16.48
2022-12-14T07:09:06.856Z,15.57
2022-12-14T07:11:33.556Z,18.63
2022-12-14T07:14:01.168Z,19.85
2022-12-14T07:16:31.652Z,17.65
2022-12-14T07:18:58.594Z,17.58
2022-12-14T07:21:25.616Z,14.45
2022-12-14T07:23:53.208Z,20.67
2022-12-14T07:26:27.637Z,18.60
2022-12-14T07:28:54.998Z,20.58
2022-12-14T07:31:27.148Z,20.10
2022-12-14T07:33:59.094Z,20.38
2022-12-14T07:36:27.819Z,18.77
2022-12-14T07:38:55.883Z,19.77
2022-12-14T07:41:29.434Z,21.30
2022-12-14T07:43:56.880Z,19.02
2022-12-14T07:46:26.072Z,16.55
2022-12-14T07:48:55.476Z,21.02
2022-12-14T07:51:25.353Z,19.83
2022-12-14T07:53:54.502Z,17.80
2022-12-14T07:56:26.626Z,20.13
2022-12-14T07:58:56.169Z,21.35
2022-12-14T08:01:25.530Z,17.75
2022-12-14T08:03:58.717Z,20.67
2022-12-14T08:06:27.286Z,19.40
2022-12-14T08:08:55.477Z,19.33
2022-12-14T08:11:23.499Z,21.45
2022-12-14T08:13:58.188Z,16.25
2022-12-14T08:16:26.059Z,20.75
2022-12-14T08:18:54.370Z,23.00
2022-12-14T08:21:22.190Z,19.80
2022-12-14T08:23:49.927Z,22.88
2022-12-14T08:26:17.550Z,20.08
2022-12-14T08:28:44.810Z,19.98
2022-12-14T08:31:16.995Z,20.15
2022-12-14T08:33:45.136Z,19.48
2022-12-14T08:36:13.796Z,20.10
2022-12-14T08:38:41.609Z,20.47
2022-12-14T08:41:12.333Z,19.88
2022-12-14T08:43:40.412Z,19.98
2022-12-14T08:46:09.808Z,25.92
2022-12-14T08:48:37.043Z,22.23
2022-12-14T08:51:05.848Z,22.17
2022-12-14T08:53:33.121Z,18.15
2022-12-14T08:56:08.925Z,18.52
2022-12-14T08:58:36.713Z,19.67
2022-12-14T09:01:15.546Z,18.90
2022-12-14T09:03:47.013Z,22.98
2022-12-14T09:06:19.789Z,23.40
2022-12-14T09:08:47.255Z,20.45
2022-12-14T09:11:19.427Z,20.30
2022-12-14T09:13:46.766Z,22.08
2022-12-14T09:16:17.266Z,21.08
2022-12-14T09:18:45.641Z,20.75
2022-12-14T09:21:12.412Z,21.58
2022-12-14T09:23:40.281Z,26.55
2022-12-14T09:26:14.838Z,20.35
2022-12-14T09:28:45.223Z,24.80
2022-12-14T09:31:14.695Z,22.75
2022-12-14T09:33:41.585Z,23.08
2022-12-14T09:36:11.837Z,24.40
2022-12-14T09:38:39.388Z,25.25
2022-12-14T09:41:15.623Z,22.05
2022-12-14T09:43:47.479Z,23.50
2022-12-14T09:46:21.944Z,22.08
2022-12-14T09:48:49.751Z,20.23
2022-12-14T09:51:19.131Z,26.48
2022-12-14T09:53:50.568Z,22.95
2022-12-14T09:56:19.739Z,22.63
2022-12-14T09:58:58.954Z,26.08
2022-12-14T10:01:50.883Z,27.42
2022-12-14T10:04:47.751Z,24.67
2022-12-14T10:07:34.349Z,24.52
2022-12-14T10:10:16.538Z,20.20
2022-12-14T10:13:03.362Z,23.25
2022-12-14T10:15:30.173Z,21.48
2022-12-14T10:18:17.562Z,21.10
2022-12-14T10:21:12.742Z,23.42
2022-12-14T10:23:58.619Z,19.52
2022-12-14T10:26:32.737Z,20.17
2022-12-14T10:29:05.106Z,20.10
2022-12-14T10:31:37.990Z,24.38
2022-12-14T10:34:20.602Z,20.80
2022-12-14T10:37:02.609Z,22.80
2022-12-14T10:39:51.653Z,23.25
2022-12-14T10:42:35.827Z,21.02
2022-12-14T10:48:19.497Z,20.60
2022-12-14T10:50:57.000Z,24.30
2022-12-14T10:53:34.586Z,19.35
2022-12-14T10:56:11.403Z,21.00
2022-12-14T10:58:38.179Z,22.80
2022-12-14T11:01:05.044Z,19.40
2022-12-14T11:03:31.941Z,19.38
2022-12-14T11:06:14.582Z,20.48
2022-12-14T11:08:47.846Z,21.85
2022-12-14T11:11:22.436Z,22.10
2022-12-14T11:14:06.258Z,23.08
2022-12-14T11:16:38.643Z,20.90
2022-12-14T11:19:20.205Z,19.00
2022-12-14T11:21:49.826Z,23.15
2022-12-14T11:24:27.867Z,22.55
2022-12-14T11:27:00.607Z,21.80
2022-12-14T11:29:36.738Z,21.67
2022-12-14T11:32:05.965Z,22.33
2022-12-14T11:34:39.084Z,21.88
2022-12-14T11:37:22.449Z,23.75
2022-12-14T11:39:51.986Z,18.77
2022-12-14T11:42:20.579Z,22.77
2022-12-14T11:44:49.783Z,26.50
2022-12-14T11:47:21.343Z,24.02
2022-12-14T11:49:56.812Z,20.50
2022-12-14T11:52:40.918Z,18.65
2022-12-14T11:55:21.560Z,20.30
2022-12-14T11:57:56.703Z,20.73
2022-12-14T12:00:47.396Z,22.90
2022-12-14T12:03:26.002Z,19.38
2022-12-14T12:05:54.750Z,21.70
2022-12-14T12:08:29.436Z,24.73
2022-12-14T12:11:02.716Z,19.67
2022-12-14T12:13:37.687Z,27.30
2022-12-14T12:16:05.653Z,24.55
2022-12-14T12:18:42.964Z,22.95
2022-12-14T12:21:23.916Z,19.17
2022-12-14T12:23:57.234Z,25.42
2022-12-14T12:26:32.641Z,22.52
2022-12-14T12:29:19.573Z,19.20
2022-12-14T12:32:00.235Z,22.88
2022-12-14T12:34:50.826Z,21.27
2022-12-14T12:37:29.669Z,20.30
2022-12-14T12:40:02.626Z,18.35
2022-12-14T12:42:53.135Z,17.58
2022-12-14T12:45:36.520Z,22.10
2022-12-14T12:48:16.875Z,20.90
2022-12-14T12:50:50.846Z,18.98
2022-12-14T12:53:39.072Z,25.25
2022-12-14T12:56:36.864Z,21.25
2022-12-14T12:59:05.544Z,20.33
2022-12-14T13:01:42.511Z,20.00
2022-12-14T13:04:18.994Z,17.15
2022-12-14T13:06:57.720Z,17.75
2022-12-14T13:09:49.796Z,14.90
2022-12-14T13:12:28.928Z,16.40
2022-12-14T13:14:58.496Z,18.98
2022-12-14T13:17:40.114Z,22.50
2022-12-14T13:20:19.839Z,18.33
2022-12-14T13:22:47.729Z,18.55
2022-12-14T13:28:41.796Z,25.38
2022-12-14T13:31:18.193Z,18.73
2022-12-14T13:34:14.711Z,22.52
2022-12-14T13:36:45.912Z,18.02
2022-12-14T13:39:12.539Z,18.63
2022-12-14T13:41:48.190Z,20.10
2022-12-14T13:44:37.228Z,17.73
2022-12-14T13:47:15.343Z,20.10
2022-12-14T13:50:11.329Z,16.85
2022-12-14T13:52:42.616Z,23.38
2022-12-14T13:55:28.066Z,20.60
2022-12-14T13:58:14.250Z,21.42
2022-12-14T14:00:57.966Z,22.33
2022-12-14T14:03:37.455Z,22.10
2022-12-14T14:08:41.413Z,20.33
2022-12-14T14:11:39.665Z,18.05
2022-12-14T14:14:25.415Z,16.63
2022-12-14T14:16:59.410Z,20.48
2022-12-14T14:19:27.684Z,23.45
2022-12-14T14:22:24.164Z,18.85
2022-12-14T14:24:54.904Z,22.73
2022-12-14T14:27:44.071Z,21.52
2022-12-14T14:30:37.021Z,18.60
2022-12-14T14:33:48.942Z,16.27
2022-12-14T14:36:33.188Z,19.63
2022-12-14T14:39:31.519Z,20.15
2022-12-14T14:41:55.620Z,20.45
2022-12-14T14:44:40.600Z,19.85
2022-12-14T14:47:20.729Z,19.83
2022-12-14T14:49:54.864Z,25.27
2022-12-14T14:52:40.093Z,20.58
2022-12-14T14:55:52.108Z,18.83
2022-12-14T14:58:30.517Z,21.13
2022-12-14T15:01:06.627Z,21.67
2022-12-14T15:03:42.356Z,26.02
2022-12-14T15:06:16.112Z,19.23
2022-12-14T15:08:50.378Z,28.20
2022-12-14T15:11:22.522Z,27.30
2022-12-14T15:14:01.169Z,22.35
2022-12-14T15:16:31.559Z,24.43
2022-12-14T15:19:36.165Z,19.35
2022-12-14T15:22:08.382Z,19.50
2022-12-14T15:24:43.391Z,19.38
2022-12-14T15:27:37.723Z,20.92
2022-12-14T15:30:10.468Z,23.42
2022-12-14T15:32:47.271Z,17.27
2022-12-14T15:35:18.695Z,19.07
2022-12-14T15:37:50.668Z,22.00
2022-12-14T15:40:23.409Z,22.00
2022-12-14T15:42:52.755Z,19.67
2022-12-14T15:45:40.821Z,20.73
2022-12-14T15:48:23.282Z,24.77
2022-12-14T15:50:55.913Z,25.57
2022-12-14T15:53:39.533Z,23.63
2022-12-14T15:56:34.389Z,18.77
2022-12-14T15:59:14.054Z,22.07
2022-12-14T16:04:25.915Z,24.23
2022-12-14T16:07:09.356Z,27.40
2022-12-14T16:09:44.136Z,22.67
2022-12-14T16:12:44.204Z,22.30
2022-12-14T16:15:24.219Z,26.03
2022-12-14T16:18:00.740Z,23.77
2022-12-14T16:20:32.058Z,23.80
2022-12-14T16:23:28.225Z,24.40
2022-12-14T16:26:02.923Z,21.83
2022-12-14T16:28:29.639Z,23.80
2022-12-14T16:31:00.722Z,23.00
2022-12-14T16:33:29.766Z,23.57
2022-12-14T16:36:08.666Z,22.60
2022-12-14T16:38:53.283Z,23.43
2022-12-14T16:41:20.042Z,19.97
2022-12-14T16:43:58.918Z,29.07
2022-12-14T16:46:25.645Z,25.92
2022-12-14T16:49:26.318Z,23.90
2022-12-14T16:52:26.797Z,20.10
2022-12-14T16:55:29.530Z,23.00
2022-12-14T16:58:01.338Z,23.00
2022-12-14T17:00:32.524Z,19.80
2022-12-14T17:03:02.149Z,25.60
2022-12-14T17:05:35.393Z,21.97
2022-12-14T17:08:02.228Z,21.23
2022-12-14T17:10:30.461Z,20.90
2022-12-14T17:12:58.941Z,18.37
2022-12-14T17:15:27.960Z,26.77
2022-12-14T17:17:57.550Z,23.67
2022-12-14T17:22:55.026Z,24.10
2022-12-14T17:25:21.810Z,24.37
2022-12-14T17:27:49.488Z,20.00
2022-12-14T17:30:18.456Z,20.47
2022-12-14T17:32:45.293Z,23.85
2022-12-14T17:35:36.657Z,23.20
2022-12-14T17:38:05.984Z,22.03
2022-12-14T17:40:32.678Z,18.67
2022-12-14T17:42:59.854Z,21.60
2022-12-14T17:45:29.694Z,24.17
2022-12-14T17:47:57.164Z,22.73
2022-12-14T17:50:25.269Z,23.10
2022-12-14T17:52:52.254Z,26.17
2022-12-14T17:55:29.213Z,20.27
2022-12-14T17:57:57.730Z,20.33
2022-12-14T18:00:46.461Z,25.83
2022-12-14T18:03:14.799Z,23.85
2022-12-14T18:05:48.310Z,28.67
2022-12-14T18:08:20.240Z,22.03
2022-12-14T18:10:49.911Z,20.53
2022-12-14T18:13:17.008Z,29.47
2022-12-14T18:15:49.895Z,29.90
2022-12-14T18:18:18.512Z,28.30
2022-12-14T18:20:49.590Z,30.73
2022-12-14T18:23:17.305Z,34.20
2022-12-14T18:25:47.880Z,28.57
2022-12-14T18:28:15.170Z,26.27
2022-12-14T18:30:49.421Z,25.47
2022-12-14T18:33:26.145Z,29.80
2022-12-14T18:35:54.832Z,25.60
2022-12-14T18:38:22.137Z,30.33
2022-12-14T18:40:51.679Z,32.77
2022-12-14T18:45:53.673Z,26.67
2022-12-14T18:48:21.261Z,30.47
2022-12-14T18:50:49.578Z,44.27
2022-12-14T18:53:19.921Z,31.95
2022-12-14T18:55:47.761Z,27.90
2022-12-14T18:58:20.743Z,30.67
2022-12-14T19:00:48.810Z,31.43
2022-12-14T19:03:15.578Z,29.57
2022-12-14T19:05:42.762Z,27.37
2022-12-14T19:08:10.305Z,26.37
2022-12-14T19:10:39.621Z,27.03
2022-12-14T19:13:06.661Z,22.33
2022-12-14T19:15:35.144Z,27.17
2022-12-14T19:18:02.482Z,28.00
2022-12-14T19:20:29.729Z,23.73
2022-12-14T19:22:56.489Z,24.00
2022-12-14T19:25:24.563Z,26.60
2022-12-14T19:30:39.349Z,30.10
2022-12-14T19:33:06.231Z,24.97
2022-12-14T19:35:32.941Z,27.87
2022-12-14T19:37:59.758Z,29.93
2022-12-14T19:40:26.677Z,30.50
2022-12-14T19:42:53.454Z,37.27
2022-12-14T19:45:20.207Z,28.60
2022-12-14T19:47:47.065Z,36.27
2022-12-14T19:50:15.509Z,30.80
2022-12-14T19:52:43.361Z,27.23
2022-12-14T19:55:11.332Z,34.33
2022-12-14T19:57:39.616Z,31.53
2022-12-14T20:00:07.897Z,28.17
2022-12-14T20:02:35.032Z,31.20
2022-12-14T20:05:02.084Z,32.77
2022-12-14T20:07:28.859Z,32.43
2022-12-14T20:09:55.579Z,36.87
2022-12-14T20:12:22.265Z,37.50
2022-12-14T20:14:49.372Z,32.57
2022-12-14T20:17:16.602Z,27.63
2022-12-14T20:19:43.445Z,33.60
2022-12-14T20:22:10.262Z,32.00
2022-12-14T20:24:37.158Z,27.80
2022-12-14T20:27:04.234Z,31.97
2022-12-14T20:29:30.979Z,35.27
2022-12-14T20:31:57.819Z,28.90
2022-12-14T20:34:24.597Z,32.60
2022-12-14T20:36:51.304Z,33.63
2022-12-14T20:39:18.271Z,27.30
2022-12-14T20:41:44.947Z,30.10
2022-12-14T20:44:12.706Z,35.17
2022-12-14T20:46:42.807Z,27.53
2022-12-14T20:49:15.974Z,30.87
2022-12-14T20:51:44.517Z,34.40
2022-12-14T20:54:16.723Z,29.23
2022-12-14T20:56:44.017Z,31.17
2022-12-14T20:59:11.682Z,30.47
2022-12-14T21:01:40.517Z,30.23
2022-12-14T21:04:08.034Z,34.25
2022-12-14T21:06:39.372Z,35.37
2022-12-14T21:09:10.284Z,44.90
2022-12-14T21:12:02.241Z,48.83
2022-12-14T21:14:34.239Z,46.07
2022-12-14T21:17:01.416Z,46.67
2022-12-14T21:19:28.433Z,42.23
2022-12-14T21:21:55.073Z,42.83
2022-12-14T21:27:24.597Z,33.80
2022-12-14T21:29:52.156Z,27.30
2022-12-14T21:32:20.329Z,28.93
2022-12-14T21:34:47.570Z,39.13
2022-12-14T21:37:14.532Z,42.50
2022-12-14T21:39:41.871Z,32.10
2022-12-14T21:42:15.783Z,36.50
2022-12-14T21:44:45.771Z,29.03
2022-12-14T21:47:19.508Z,44.60
2022-12-14T21:49:47.931Z,30.73
2022-12-14T21:52:22.087Z,40.63
2022-12-14T21:54:48.853Z,32.33
2022-12-14T21:57:37.506Z,32.57
2022-12-14T22:00:06.782Z,30.58
2022-12-14T22:02:33.642Z,26.60
2022-12-14T22:05:00.483Z,23.67
2022-12-14T22:07:31.407Z,31.90
2022-12-14T22:09:58.387Z,27.20
2022-12-14T22:12:25.087Z,31.57
2022-12-14T22:14:51.776Z,26.57
2022-12-14T22:17:18.844Z,29.23
2022-12-14T22:19:45.643Z,27.30
2022-12-14T22:22:15.173Z,25.30
2022-12-14T22:27:10.854Z,22.10
2022-12-14T22:29:37.526Z,23.30
2022-12-14T22:32:04.541Z,24.23
2022-12-14T22:34:31.222Z,23.60
2022-12-14T22:36:57.925Z,29.53
2022-12-14T22:39:24.757Z,27.63
2022-12-14T22:41:51.418Z,21.13
2022-12-14T22:44:18.152Z,26.30
2022-12-14T22:46:44.928Z,22.43
2022-12-14T22:49:16.877Z,22.27
2022-12-14T22:51:43.640Z,19.83
2022-12-14T22:54:31.642Z,19.60
2022-12-14T22:57:08.107Z,15.50
2022-12-14T22:59:42.149Z,22.90
2022-12-14T23:02:09.283Z,25.30
2022-12-14T23:04:37.510Z,22.13
2022-12-14T23:07:04.555Z,25.37
2022-12-14T23:09:49.757Z,26.20
2022-12-14T23:12:35.222Z,22.63
2022-12-14T23:15:20.546Z,18.07
2022-12-14T23:18:05.628Z,20.17
2022-12-14T23:20:51.099Z,23.10
2022-12-14T23:23:36.228Z,29.73
2022-12-14T23:26:22.769Z,26.07
2022-12-14T23:29:08.242Z,30.63
2022-12-14T23:31:53.545Z,25.37
2022-12-14T23:34:38.946Z,29.90
2022-12-14T23:37:24.271Z,28.60
2022-12-14T23:40:09.647Z,26.80
2022-12-14T23:42:55.068Z,26.70
2022-12-14T23:45:40.565Z,30.33
2022-12-14T23:48:25.904Z,25.97
2022-12-14T23:51:11.310Z,26.97
2022-12-14T23:53:56.666Z,27.50
2022-12-14T23:56:42.143Z,26.53
2022-12-14T23:59:32.040Z,23.17
